createdAt,value
2023-01-03T00:10:17.656Z,1.60
2023-01-03T00:13:03.213Z,1.75
2023-01-03T00:15:48.565Z,1.70
2023-01-03T00:18:33.836Z,1.77
2023-01-03T00:21:18.981Z,1.88
2023-01-03T00:24:05.076Z,1.60
2023-01-03T00:26:50.448Z,1.50
2023-01-03T00:29:35.765Z,1.90
2023-01-03T00:32:21.533Z,1.85
2023-01-03T00:35:07.557Z,1.67
2023-01-03T00:37:52.965Z,1.83
2023-01-03T00:40:39.259Z,1.83
2023-01-03T00:43:30.942Z,1.42
2023-01-03T00:46:19.238Z,1.60
2023-01-03T00:49:05.244Z,1.48
2023-01-03T00:51:50.756Z,1.63
2023-01-03T00:54:36.930Z,1.58
2023-01-03T00:57:22.315Z,1.67
2023-01-03T01:48:05.692Z,1.88
2023-01-03T01:50:55.228Z,1.40
2023-01-03T01:53:42.657Z,1.30
2023-01-03T01:56:33.839Z,1.60
2023-01-03T01:59:19.318Z,2.00
2023-01-03T02:47:49.456Z,1.50
2023-01-03T02:50:46.994Z,1.25
2023-01-03T02:53:45.226Z,1.20
2023-01-03T02:56:42.838Z,1.00
2023-01-03T02:59:44.344Z,1.33
2023-01-03T03:45:33.571Z,1.20
2023-01-03T03:48:28.312Z,0.93
2023-01-03T03:51:18.714Z,1.17
2023-01-03T03:54:11.212Z,1.10
2023-01-03T03:57:29.165Z,1.00
2023-01-03T04:47:37.003Z,0.98
2023-01-03T04:50:22.259Z,1.10
2023-01-03T04:53:07.670Z,1.20
2023-01-03T04:55:58.482Z,1.13
2023-01-03T04:58:43.550Z,1.03
2023-01-03T05:34:05.539Z,1.00
2023-01-03T05:36:50.843Z,1.00
2023-01-03T05:39:36.351Z,1.00
2023-01-03T05:42:21.686Z,1.08
2023-01-03T05:45:07.776Z,1.00
2023-01-03T05:47:53.225Z,1.00
2023-01-03T05:50:38.729Z,1.00
2023-01-03T05:53:24.641Z,1.05
2023-01-03T05:56:11.031Z,0.98
2023-01-03T05:58:56.117Z,1.00
2023-01-03T06:01:41.403Z,0.90
2023-01-03T06:04:26.731Z,1.50
2023-01-03T06:07:12.044Z,1.33
2023-01-03T06:09:57.381Z,1.30
2023-01-03T06:12:42.699Z,1.00
2023-01-03T06:15:27.972Z,0.93
2023-01-03T06:18:13.164Z,1.10
2023-01-03T06:20:58.384Z,1.10
2023-01-03T06:23:47.404Z,1.15
2023-01-03T06:26:32.867Z,1.10
2023-01-03T06:29:18.142Z,1.10
2023-01-03T06:32:08.868Z,1.20
2023-01-03T06:34:54.861Z,1.05
2023-01-03T06:37:40.312Z,1.13
2023-01-03T06:40:30.364Z,1.10
2023-01-03T06:43:19.261Z,1.20
2023-01-03T06:46:23.132Z,1.27
2023-01-03T06:49:36.026Z,1.00
2023-01-03T06:52:39.791Z,1.10
2023-01-03T06:55:25.761Z,0.93
2023-01-03T06:58:12.413Z,1.20
2023-01-03T07:01:00.008Z,1.10
2023-01-03T07:03:45.271Z,1.00
2023-01-03T07:06:30.670Z,0.90
2023-01-03T07:09:16.204Z,1.03
2023-01-03T07:12:21.581Z,0.90
2023-01-03T07:15:07.697Z,1.20
2023-01-03T07:17:52.769Z,1.00
2023-01-03T07:20:42.552Z,0.90
2023-01-03T07:23:27.696Z,0.90
2023-01-03T07:26:13.058Z,1.00
2023-01-03T07:28:59.190Z,1.13
2023-01-03T07:31:44.201Z,1.17
2023-01-03T07:34:30.783Z,1.10
2023-01-03T07:37:16.310Z,1.00
2023-01-03T07:40:02.120Z,1.10
2023-01-03T07:43:06.586Z,0.95
2023-01-03T07:45:52.096Z,1.20
2023-01-03T07:48:38.121Z,1.13
2023-01-03T07:51:23.483Z,0.80
2023-01-03T07:54:08.816Z,1.25
2023-01-03T07:56:54.110Z,1.10
2023-01-03T07:59:39.322Z,1.10
2023-01-03T08:45:30.387Z,1.07
2023-01-03T08:48:18.929Z,1.25
2023-01-03T08:51:04.917Z,1.50
2023-01-03T08:53:49.895Z,1.10
2023-01-03T08:56:35.547Z,0.93
2023-01-03T08:59:20.951Z,1.20
2023-01-03T09:48:20.390Z,1.27
2023-01-03T09:51:30.480Z,1.05
2023-01-03T09:54:50.969Z,1.02
2023-01-03T09:57:55.757Z,1.30
2023-01-03T10:07:25.687Z,1.40
2023-01-03T10:10:29.913Z,1.58
2023-01-03T10:13:42.573Z,1.60
2023-01-03T10:16:53.017Z,1.38
2023-01-03T10:20:03.294Z,1.50
2023-01-03T10:22:51.555Z,1.30
2023-01-03T10:25:39.911Z,1.30
2023-01-03T10:28:37.879Z,1.40
2023-01-03T10:31:51.624Z,1.13
2023-01-03T10:34:40.516Z,1.10
2023-01-03T10:37:26.688Z,1.20
2023-01-03T10:40:14.184Z,1.30
2023-01-03T10:42:59.573Z,1.30
2023-01-03T10:46:03.059Z,1.50
2023-01-03T10:49:25.912Z,1.30
2023-01-03T10:52:24.315Z,1.33
2023-01-03T10:55:16.920Z,1.40
2023-01-03T10:58:14.060Z,1.20
2023-01-03T11:01:23.730Z,1.25
2023-01-03T11:04:18.132Z,1.17
2023-01-03T11:07:13.788Z,1.27
2023-01-03T11:09:59.372Z,1.65
2023-01-03T11:12:46.759Z,1.30
2023-01-03T11:15:37.978Z,1.55
2023-01-03T11:18:27.688Z,1.40
2023-01-03T11:21:23.526Z,1.50
2023-01-03T11:24:08.832Z,1.60
2023-01-03T11:27:06.287Z,1.63
2023-01-03T11:30:12.612Z,1.40
2023-01-03T11:33:03.740Z,1.60
2023-01-03T11:36:11.884Z,1.42
2023-01-03T11:39:00.457Z,1.42
2023-01-03T11:42:07.231Z,1.37
2023-01-03T11:45:16.440Z,1.70
2023-01-03T11:48:31.636Z,1.67
2023-01-03T11:51:33.425Z,2.03
2023-01-03T11:54:53.247Z,1.80
2023-01-03T11:57:39.218Z,2.03
2023-01-03T12:00:51.307Z,1.83
2023-01-03T12:04:01.487Z,2.00
2023-01-03T12:06:49.112Z,1.45
2023-01-03T12:09:50.214Z,1.67
2023-01-03T12:12:54.138Z,2.20
2023-01-03T12:15:46.519Z,2.70
2023-01-03T12:18:41.126Z,2.70
2023-01-03T12:21:27.339Z,1.90
2023-01-03T12:24:39.274Z,1.90
2023-01-03T12:27:32.594Z,1.83
2023-01-03T12:30:34.332Z,1.80
2023-01-03T12:33:32.501Z,2.15
2023-01-03T12:36:33.388Z,1.80
2023-01-03T12:39:37.016Z,1.60
2023-01-03T12:42:47.194Z,1.90
2023-01-03T12:45:34.669Z,1.67
2023-01-03T12:48:30.642Z,1.77
2023-01-03T12:51:20.689Z,1.88
2023-01-03T12:54:28.013Z,2.03
2023-01-03T12:57:29.585Z,1.93
2023-01-03T13:00:39.667Z,1.95
2023-01-03T13:03:48.048Z,2.30
2023-01-03T13:06:37.653Z,2.30
2023-01-03T13:09:32.343Z,2.47
2023-01-03T13:12:25.896Z,2.30
2023-01-03T13:15:36.580Z,2.20
2023-01-03T13:18:23.148Z,2.33
2023-01-03T13:21:47.519Z,2.20
2023-01-03T13:24:42.461Z,2.30
2023-01-03T13:27:36.721Z,2.30
2023-01-03T13:30:35.276Z,2.28
2023-01-03T13:33:21.125Z,3.10
2023-01-03T13:36:07.088Z,2.10
2023-01-03T13:38:52.699Z,2.25
2023-01-03T13:41:41.544Z,2.20
2023-01-03T13:44:27.030Z,2.05
2023-01-03T13:47:49.714Z,2.05
2023-01-03T13:50:37.474Z,2.30
2023-01-03T13:53:23.210Z,2.13
2023-01-03T13:56:14.685Z,2.13
2023-01-03T13:59:15.532Z,2.00
2023-01-03T14:02:10.239Z,2.20
2023-01-03T14:05:14.580Z,1.83
2023-01-03T14:08:46.864Z,2.20
2023-01-03T14:11:50.739Z,1.90
2023-01-03T14:14:40.282Z,1.80
2023-01-03T14:17:31.302Z,1.83
2023-01-03T14:20:22.884Z,1.70
2023-01-03T14:23:48.797Z,1.70
2023-01-03T14:26:19.672Z,2.10
2023-01-03T14:29:11.268Z,1.60
2023-01-03T14:31:57.811Z,1.88
2023-01-03T14:34:43.668Z,1.90
2023-01-03T14:37:30.514Z,2.13
2023-01-03T14:40:19.819Z,2.20
2023-01-03T14:43:05.664Z,1.55
2023-01-03T14:46:12.307Z,1.90
2023-01-03T14:49:03.512Z,1.77
2023-01-03T14:51:49.221Z,1.77
2023-01-03T14:54:37.349Z,1.80
2023-01-03T14:57:28.239Z,1.70
2023-01-03T15:00:43.258Z,1.85
2023-01-03T15:03:33.708Z,1.42
2023-01-03T15:06:31.015Z,1.80
2023-01-03T15:09:22.711Z,1.50
2023-01-03T15:12:08.937Z,1.60
2023-01-03T15:14:54.924Z,1.85
2023-01-03T15:17:40.984Z,1.52
2023-01-03T15:20:42.620Z,2.50
2023-01-03T15:23:38.598Z,2.23
2023-01-03T15:26:37.186Z,1.70
2023-01-03T15:29:25.057Z,1.60
2023-01-03T15:32:11.378Z,1.85
2023-01-03T15:34:57.577Z,1.83
2023-01-03T15:37:43.422Z,1.80
2023-01-03T15:40:31.432Z,1.70
2023-01-03T15:43:19.918Z,1.40
2023-01-03T15:46:11.246Z,1.60
2023-01-03T15:48:57.730Z,1.48
2023-01-03T15:51:43.093Z,1.60
2023-01-03T15:54:28.567Z,1.40
2023-01-03T15:57:16.573Z,1.75
2023-01-03T16:00:04.095Z,1.15
2023-01-03T16:02:51.048Z,2.97
2023-01-03T16:05:36.628Z,3.40
2023-01-03T16:08:36.033Z,2.97
2023-01-03T16:11:31.477Z,2.38
2023-01-03T16:14:23.818Z,2.00
2023-01-03T16:17:22.525Z,2.22
2023-01-03T16:20:15.414Z,1.80
2023-01-03T16:23:01.910Z,1.70
2023-01-03T16:25:48.204Z,1.80
2023-01-03T16:28:34.513Z,1.75
2023-01-03T16:31:30.464Z,1.67
2023-01-03T16:34:22.277Z,1.33
2023-01-03T16:37:10.174Z,1.73
2023-01-03T16:39:55.662Z,1.80
2023-01-03T16:42:41.522Z,1.48
2023-01-03T16:45:27.217Z,1.48
2023-01-03T16:48:17.747Z,1.60
2023-01-03T16:51:03.347Z,1.80
2023-01-03T16:53:49.329Z,1.63
2023-01-03T16:56:35.045Z,1.60
2023-01-03T16:59:22.922Z,1.70
2023-01-03T17:02:09.071Z,1.73
2023-01-03T17:04:54.976Z,1.63
2023-01-03T17:07:43.601Z,1.80
2023-01-03T17:10:33.142Z,2.00
2023-01-03T17:13:35.550Z,1.92
2023-01-03T17:16:24.915Z,1.60
2023-01-03T17:20:03.315Z,1.70
2023-01-03T17:22:34.610Z,1.90
2023-01-03T17:25:20.689Z,1.83
2023-01-03T17:28:06.306Z,1.50
2023-01-03T17:30:56.685Z,1.40
2023-01-03T17:33:43.275Z,1.67
2023-01-03T17:36:33.563Z,1.63
2023-01-03T17:39:19.999Z,1.70
2023-01-03T17:42:16.276Z,1.67
2023-01-03T17:45:20.502Z,1.93
2023-01-03T17:48:25.168Z,1.50
2023-01-03T17:51:12.703Z,1.52
2023-01-03T17:53:58.671Z,1.35
2023-01-03T17:56:44.743Z,1.60
2023-01-03T17:59:30.470Z,1.60
2023-01-03T18:02:19.831Z,1.70
2023-01-03T18:05:16.463Z,1.77
2023-01-03T18:08:18.125Z,1.67
2023-01-03T18:11:04.212Z,1.70
2023-01-03T18:13:49.964Z,1.67
2023-01-03T18:16:35.611Z,2.10
2023-01-03T18:19:21.261Z,2.28
2023-01-03T18:22:09.870Z,1.95
2023-01-03T18:24:57.274Z,2.08
2023-01-03T18:27:49.242Z,1.80
2023-01-03T18:30:36.930Z,1.88
2023-01-03T18:33:22.970Z,2.30
2023-01-03T18:36:28.273Z,2.20
2023-01-03T18:39:16.034Z,2.15
2023-01-03T18:42:20.231Z,2.17
2023-01-03T18:45:06.911Z,2.03
2023-01-03T18:47:52.993Z,2.20
2023-01-03T18:50:38.839Z,2.00
2023-01-03T18:53:28.859Z,2.13
2023-01-03T18:56:35.272Z,2.30
2023-01-03T18:59:27.942Z,1.80
2023-01-03T19:02:15.572Z,2.17
2023-01-03T19:05:01.075Z,2.13
2023-01-03T19:07:50.522Z,2.40
2023-01-03T19:10:35.881Z,2.20
2023-01-03T19:13:26.521Z,2.38
2023-01-03T19:16:13.677Z,2.20
2023-01-03T19:19:00.498Z,1.90
2023-01-03T19:21:47.543Z,2.22
2023-01-03T19:24:39.387Z,2.63
2023-01-03T19:27:33.026Z,3.15
2023-01-03T19:32:55.118Z,2.80
2023-01-03T19:35:41.215Z,2.70
2023-01-03T19:38:28.729Z,2.88
2023-01-03T19:41:18.329Z,2.65
2023-01-03T19:44:06.218Z,2.60
2023-01-03T19:46:56.740Z,2.50
